sensor_id;sensor_type;location;lat;lon;timestamp;P1;durP1;ratioP1;P2;durP2;ratioP2
23712;SDS011;12035;49.978;8.298;2023-06-22T00:02:17;5.90;;;3.60;;
23712;SDS011;12035;49.978;8.298;2023-06-22T00:07:15;4.38;;;3.33;;
23712;SDS011;12035;49.978;8.298;2023-06-22T00:12:12;4.57;;;3.42;;
23712;SDS011;12035;49.978;8.298;2023-06-22T00:17:09;6.22;;;3.40;;
23712;SDS011;12035;49.978;8.298;2023-06-22T00:22:06;5.53;;;3.47;;
23712;SDS011;12035;49.978;8.298;2023-06-22T00:27:05;6.32;;;3.53;;
23712;SDS011;12035;49.978;8.298;2023-06-22T00:32:02;6.25;;;3.85;;
23712;SDS011;12035;49.978;8.298;2023-06-22T00:37:00;4.72;;;3.50;;
23712;SDS011;12035;49.978;8.298;2023-06-22T00:41:57;5.72;;;4.13;;
23712;SDS011;12035;49.978;8.298;2023-06-22T00:46:57;5.25;;;3.78;;
23712;SDS011;12035;49.978;8.298;2023-06-22T00:51:55;8.27;;;3.97;;
23712;SDS011;12035;49.978;8.298;2023-06-22T00:56:53;4.75;;;4.03;;
23712;SDS011;12035;49.978;8.298;2023-06-22T01:01:52;5.60;;;4.13;;
23712;SDS011;12035;49.978;8.298;2023-06-22T01:06:52;8.48;;;4.90;;
23712;SDS011;12035;49.978;8.298;2023-06-22T01:12:04;7.15;;;4.93;;
23712;SDS011;12035;49.978;8.298;2023-06-22T01:17:04;6.22;;;4.70;;
23712;SDS011;12035;49.978;8.298;2023-06-22T01:22:06;10.32;;;4.95;;
23712;SDS011;12035;49.978;8.298;2023-06-22T01:27:13;6.63;;;5.10;;
23712;SDS011;12035;49.978;8.298;2023-06-22T01:32:24;5.93;;;4.03;;
23712;SDS011;12035;49.978;8.298;2023-06-22T01:37:22;6.75;;;4.90;;
23712;SDS011;12035;49.978;8.298;2023-06-22T01:42:19;6.07;;;4.57;;
23712;SDS011;12035;49.978;8.298;2023-06-22T01:47:16;5.65;;;4.63;;
23712;SDS011;12035;49.978;8.298;2023-06-22T01:52:15;6.50;;;4.32;;
23712;SDS011;12035;49.978;8.298;2023-06-22T01:57:12;6.95;;;5.30;;
23712;SDS011;12035;49.978;8.298;2023-06-22T02:02:09;6.93;;;4.15;;
23712;SDS011;12035;49.978;8.298;2023-06-22T02:07:09;5.18;;;3.70;;
23712;SDS011;12035;49.978;8.298;2023-06-22T02:12:10;6.35;;;4.50;;
23712;SDS011;12035;49.978;8.298;2023-06-22T02:17:09;5.38;;;3.80;;
23712;SDS011;12035;49.978;8.298;2023-06-22T02:22:07;8.35;;;4.78;;
23712;SDS011;12035;49.978;8.298;2023-06-22T02:27:04;6.18;;;4.18;;
23712;SDS011;12035;49.978;8.298;2023-06-22T02:32:03;7.78;;;5.00;;
23712;SDS011;12035;49.978;8.298;2023-06-22T02:37:01;6.35;;;4.45;;
23712;SDS011;12035;49.978;8.298;2023-06-22T02:41:59;4.90;;;4.15;;
23712;SDS011;12035;49.978;8.298;2023-06-22T02:46:56;6.22;;;4.00;;
23712;SDS011;12035;49.978;8.298;2023-06-22T02:51:55;5.47;;;4.10;;
23712;SDS011;12035;49.978;8.298;2023-06-22T02:56:53;5.55;;;4.03;;
23712;SDS011;12035;49.978;8.298;2023-06-22T03:01:50;7.13;;;4.90;;
23712;SDS011;12035;49.978;8.298;2023-06-22T03:06:47;6.95;;;3.55;;
23712;SDS011;12035;49.978;8.298;2023-06-22T03:11:47;5.95;;;4.10;;
23712;SDS011;12035;49.978;8.298;2023-06-22T03:16:44;7.03;;;4.40;;
23712;SDS011;12035;49.978;8.298;2023-06-22T03:21:41;5.93;;;4.50;;
23712;SDS011;12035;49.978;8.298;2023-06-22T03:26:38;5.72;;;4.28;;
23712;SDS011;12035;49.978;8.298;2023-06-22T03:31:36;7.18;;;5.00;;
23712;SDS011;12035;49.978;8.298;2023-06-22T03:36:33;5.60;;;4.80;;
23712;SDS011;12035;49.978;8.298;2023-06-22T03:41:30;8.70;;;5.30;;
23712;SDS011;12035;49.978;8.298;2023-06-22T03:46:27;10.07;;;5.68;;
23712;SDS011;12035;49.978;8.298;2023-06-22T03:51:26;9.35;;;5.40;;
23712;SDS011;12035;49.978;8.298;2023-06-22T03:56:23;6.95;;;5.22;;
23712;SDS011;12035;49.978;8.298;2023-06-22T04:01:20;8.32;;;5.63;;
23712;SDS011;12035;49.978;8.298;2023-06-22T04:06:17;9.45;;;5.72;;
23712;SDS011;12035;49.978;8.298;2023-06-22T04:11:15;7.47;;;5.70;;
23712;SDS011;12035;49.978;8.298;2023-06-22T04:16:13;7.43;;;5.60;;
23712;SDS011;12035;49.978;8.298;2023-06-22T04:21:10;8.20;;;6.00;;
23712;SDS011;12035;49.978;8.298;2023-06-22T04:26:07;7.40;;;5.55;;
23712;SDS011;12035;49.978;8.298;2023-06-22T04:31:06;6.72;;;5.05;;
23712;SDS011;12035;49.978;8.298;2023-06-22T04:36:03;7.80;;;5.63;;
23712;SDS011;12035;49.978;8.298;2023-06-22T04:41:00;7.13;;;5.10;;
23712;SDS011;12035;49.978;8.298;2023-06-22T04:45:58;6.30;;;5.13;;
23712;SDS011;12035;49.978;8.298;2023-06-22T04:50:59;7.47;;;5.32;;
23712;SDS011;12035;49.978;8.298;2023-06-22T04:55:59;7.00;;;5.70;;
23712;SDS011;12035;49.978;8.298;2023-06-22T05:00:55;7.57;;;4.60;;
23712;SDS011;12035;49.978;8.298;2023-06-22T05:05:52;7.30;;;6.10;;
23712;SDS011;12035;49.978;8.298;2023-06-22T05:10:51;6.93;;;5.82;;
23712;SDS011;12035;49.978;8.298;2023-06-22T05:15:48;7.35;;;5.70;;
23712;SDS011;12035;49.978;8.298;2023-06-22T05:20:45;9.23;;;6.35;;
23712;SDS011;12035;49.978;8.298;2023-06-22T05:25:42;7.55;;;6.15;;
23712;SDS011;12035;49.978;8.298;2023-06-22T05:30:40;8.15;;;6.47;;
23712;SDS011;12035;49.978;8.298;2023-06-22T05:35:37;7.28;;;5.90;;
23712;SDS011;12035;49.978;8.298;2023-06-22T05:40:34;7.78;;;5.38;;
23712;SDS011;12035;49.978;8.298;2023-06-22T05:45:31;6.47;;;5.70;;
23712;SDS011;12035;49.978;8.298;2023-06-22T05:50:30;9.93;;;5.95;;
23712;SDS011;12035;49.978;8.298;2023-06-22T05:55:26;7.18;;;5.32;;
23712;SDS011;12035;49.978;8.298;2023-06-22T06:00:23;7.10;;;5.40;;
23712;SDS011;12035;49.978;8.298;2023-06-22T06:05:20;8.00;;;5.70;;
23712;SDS011;12035;49.978;8.298;2023-06-22T06:10:20;7.20;;;5.63;;
23712;SDS011;12035;49.978;8.298;2023-06-22T06:15:17;9.10;;;5.72;;
23712;SDS011;12035;49.978;8.298;2023-06-22T06:20:14;8.77;;;6.25;;
23712;SDS011;12035;49.978;8.298;2023-06-22T06:25:11;7.40;;;5.70;;
23712;SDS011;12035;49.978;8.298;2023-06-22T06:30:13;7.82;;;5.78;;
23712;SDS011;12035;49.978;8.298;2023-06-22T06:35:12;9.60;;;5.47;;
23712;SDS011;12035;49.978;8.298;2023-06-22T06:40:11;7.10;;;5.15;;
23712;SDS011;12035;49.978;8.298;2023-06-22T06:45:10;6.43;;;5.47;;
23712;SDS011;12035;49.978;8.298;2023-06-22T06:50:11;7.70;;;5.75;;
23712;SDS011;12035;49.978;8.298;2023-06-22T06:55:09;6.95;;;5.30;;
23712;SDS011;12035;49.978;8.298;2023-06-22T07:00:07;8.40;;;5.32;;
23712;SDS011;12035;49.978;8.298;2023-06-22T07:05:09;8.43;;;5.93;;
23712;SDS011;12035;49.978;8.298;2023-06-22T07:10:07;7.03;;;5.38;;
23712;SDS011;12035;49.978;8.298;2023-06-22T07:15:06;9.07;;;6.50;;
23712;SDS011;12035;49.978;8.298;2023-06-22T07:20:05;8.82;;;5.78;;
23712;SDS011;12035;49.978;8.298;2023-06-22T07:25:07;7.13;;;5.28;;
23712;SDS011;12035;49.978;8.298;2023-06-22T07:30:05;6.95;;;5.57;;
23712;SDS011;12035;49.978;8.298;2023-06-22T07:35:03;9.93;;;5.90;;
23712;SDS011;12035;49.978;8.298;2023-06-22T07:40:02;7.30;;;5.63;;
23712;SDS011;12035;49.978;8.298;2023-06-22T07:45:03;7.03;;;5.70;;
23712;SDS011;12035;49.978;8.298;2023-06-22T07:50:03;8.82;;;5.97;;
23712;SDS011;12035;49.978;8.298;2023-06-22T07:55:01;7.72;;;5.82;;
23712;SDS011;12035;49.978;8.298;2023-06-22T07:59:59;7.32;;;5.93;;
23712;SDS011;12035;49.978;8.298;2023-06-22T08:05:00;7.65;;;5.32;;
23712;SDS011;12035;49.978;8.298;2023-06-22T08:09:57;8.55;;;6.22;;
23712;SDS011;12035;49.978;8.298;2023-06-22T08:14:54;8.50;;;5.93;;
23712;SDS011;12035;49.978;8.298;2023-06-22T08:19:51;8.27;;;6.20;;
23712;SDS011;12035;49.978;8.298;2023-06-22T08:24:50;8.77;;;6.30;;
23712;SDS011;12035;49.978;8.298;2023-06-22T08:29:47;9.10;;;6.30;;
23712;SDS011;12035;49.978;8.298;2023-06-22T08:34:45;8.88;;;5.90;;
23712;SDS011;12035;49.978;8.298;2023-06-22T08:39:41;7.60;;;6.63;;
23712;SDS011;12035;49.978;8.298;2023-06-22T08:44:40;7.30;;;6.13;;
23712;SDS011;12035;49.978;8.298;2023-06-22T08:49:37;7.57;;;6.03;;
23712;SDS011;12035;49.978;8.298;2023-06-22T08:54:34;11.15;;;6.65;;
23712;SDS011;12035;49.978;8.298;2023-06-22T08:59:31;9.65;;;6.70;;
23712;SDS011;12035;49.978;8.298;2023-06-22T09:04:30;9.25;;;6.43;;
23712;SDS011;12035;49.978;8.298;2023-06-22T09:09:29;8.80;;;6.70;;
23712;SDS011;12035;49.978;8.298;2023-06-22T09:14:26;9.38;;;6.40;;
23712;SDS011;12035;49.978;8.298;2023-06-22T09:19:23;12.23;;;6.63;;
23712;SDS011;12035;49.978;8.298;2023-06-22T09:24:21;11.35;;;6.97;;
23712;SDS011;12035;49.978;8.298;2023-06-22T09:29:18;8.90;;;7.05;;
23712;SDS011;12035;49.978;8.298;2023-06-22T09:34:15;8.40;;;6.35;;
23712;SDS011;12035;49.978;8.298;2023-06-22T09:39:15;11.27;;;6.65;;
23712;SDS011;12035;49.978;8.298;2023-06-22T09:44:15;8.15;;;6.60;;
23712;SDS011;12035;49.978;8.298;2023-06-22T09:49:12;10.70;;;6.50;;
23712;SDS011;12035;49.978;8.298;2023-06-22T09:54:09;11.32;;;5.88;;
23712;SDS011;12035;49.978;8.298;2023-06-22T09:59:06;6.57;;;5.72;;
23712;SDS011;12035;49.978;8.298;2023-06-22T10:04:05;9.95;;;5.50;;
23712;SDS011;12035;49.978;8.298;2023-06-22T10:09:02;6.80;;;5.57;;
23712;SDS011;12035;49.978;8.298;2023-06-22T10:13:59;10.77;;;5.45;;
23712;SDS011;12035;49.978;8.298;2023-06-22T10:18:56;8.23;;;5.15;;
23712;SDS011;12035;49.978;8.298;2023-06-22T10:23:54;6.65;;;5.18;;
23712;SDS011;12035;49.978;8.298;2023-06-22T10:28:51;8.75;;;5.35;;
23712;SDS011;12035;49.978;8.298;2023-06-22T10:33:49;10.00;;;6.07;;
23712;SDS011;12035;49.978;8.298;2023-06-22T10:38:46;8.43;;;5.63;;
23712;SDS011;12035;49.978;8.298;2023-06-22T10:43:44;7.85;;;5.53;;
23712;SDS011;12035;49.978;8.298;2023-06-22T10:48:41;5.88;;;5.05;;
23712;SDS011;12035;49.978;8.298;2023-06-22T10:53:38;8.30;;;5.20;;
23712;SDS011;12035;49.978;8.298;2023-06-22T10:58:35;6.40;;;4.97;;
23712;SDS011;12035;49.978;8.298;2023-06-22T11:03:33;7.63;;;4.57;;
23712;SDS011;12035;49.978;8.298;2023-06-22T11:08:30;7.80;;;5.10;;
23712;SDS011;12035;49.978;8.298;2023-06-22T11:13:27;9.45;;;5.40;;
23712;SDS011;12035;49.978;8.298;2023-06-22T11:18:24;10.82;;;5.68;;
23712;SDS011;12035;49.978;8.298;2023-06-22T11:23:23;10.55;;;5.40;;
23712;SDS011;12035;49.978;8.298;2023-06-22T11:28:21;9.88;;;5.70;;
23712;SDS011;12035;49.978;8.298;2023-06-22T11:33:18;6.95;;;5.72;;
23712;SDS011;12035;49.978;8.298;2023-06-22T11:38:15;9.63;;;5.45;;
23712;SDS011;12035;49.978;8.298;2023-06-22T11:43:13;11.00;;;4.93;;
23712;SDS011;12035;49.978;8.298;2023-06-22T11:48:10;7.97;;;5.82;;
23712;SDS011;12035;49.978;8.298;2023-06-22T11:53:07;8.73;;;5.35;;
23712;SDS011;12035;49.978;8.298;2023-06-22T11:58:04;8.13;;;5.25;;
23712;SDS011;12035;49.978;8.298;2023-06-22T12:03:03;7.10;;;5.88;;
23712;SDS011;12035;49.978;8.298;2023-06-22T12:08:00;7.05;;;5.18;;
23712;SDS011;12035;49.978;8.298;2023-06-22T12:12:57;10.43;;;6.25;;
23712;SDS011;12035;49.978;8.298;2023-06-22T12:17:55;8.13;;;5.80;;
23712;SDS011;12035;49.978;8.298;2023-06-22T12:22:53;13.15;;;6.20;;
23712;SDS011;12035;49.978;8.298;2023-06-22T12:27:51;9.70;;;5.75;;
23712;SDS011;12035;49.978;8.298;2023-06-22T12:32:48;9.20;;;5.97;;
23712;SDS011;12035;49.978;8.298;2023-06-22T12:37:46;7.55;;;5.03;;
23712;SDS011;12035;49.978;8.298;2023-06-22T12:42:45;7.38;;;5.90;;
23712;SDS011;12035;49.978;8.298;2023-06-22T12:47:42;9.63;;;5.65;;
23712;SDS011;12035;49.978;8.298;2023-06-22T12:52:39;9.23;;;6.32;;
23712;SDS011;12035;49.978;8.298;2023-06-22T12:57:36;9.88;;;6.18;;
23712;SDS011;12035;49.978;8.298;2023-06-22T13:02:35;16.60;;;6.05;;
23712;SDS011;12035;49.978;8.298;2023-06-22T13:07:32;11.25;;;5.40;;
23712;SDS011;12035;49.978;8.298;2023-06-22T13:12:29;10.75;;;5.45;;
23712;SDS011;12035;49.978;8.298;2023-06-22T13:17:26;7.50;;;5.85;;
23712;SDS011;12035;49.978;8.298;2023-06-22T13:22:38;7.13;;;5.43;;
23712;SDS011;12035;49.978;8.298;2023-06-22T13:27:37;9.20;;;5.47;;
23712;SDS011;12035;49.978;8.298;2023-06-22T13:32:35;7.90;;;5.40;;
23712;SDS011;12035;49.978;8.298;2023-06-22T13:37:32;6.57;;;4.70;;
23712;SDS011;12035;49.978;8.298;2023-06-22T13:42:30;7.85;;;5.20;;
23712;SDS011;12035;49.978;8.298;2023-06-22T13:47:27;10.60;;;5.20;;
23712;SDS011;12035;49.978;8.298;2023-06-22T13:52:25;9.70;;;4.18;;
23712;SDS011;12035;49.978;8.298;2023-06-22T13:57:22;11.10;;;4.60;;
23712;SDS011;12035;49.978;8.298;2023-06-22T14:02:21;7.18;;;4.13;;
23712;SDS011;12035;49.978;8.298;2023-06-22T14:07:18;8.32;;;3.97;;
23712;SDS011;12035;49.978;8.298;2023-06-22T14:12:16;9.07;;;3.70;;
23712;SDS011;12035;49.978;8.298;2023-06-22T14:17:14;13.18;;;4.13;;
23712;SDS011;12035;49.978;8.298;2023-06-22T14:22:12;8.40;;;3.83;;
23712;SDS011;12035;49.978;8.298;2023-06-22T14:27:09;10.27;;;4.03;;
23712;SDS011;12035;49.978;8.298;2023-06-22T14:32:07;7.90;;;3.97;;
23712;SDS011;12035;49.978;8.298;2023-06-22T14:37:05;7.70;;;4.05;;
23712;SDS011;12035;49.978;8.298;2023-06-22T14:42:06;12.13;;;4.60;;
23712;SDS011;12035;49.978;8.298;2023-06-22T14:47:04;7.10;;;3.95;;
23712;SDS011;12035;49.978;8.298;2023-06-22T14:52:02;6.63;;;3.58;;
23712;SDS011;12035;49.978;8.298;2023-06-22T14:57:01;9.57;;;4.05;;
23712;SDS011;12035;49.978;8.298;2023-06-22T15:01:59;6.43;;;3.67;;
23712;SDS011;12035;49.978;8.298;2023-06-22T15:06:56;8.77;;;4.22;;
23712;SDS011;12035;49.978;8.298;2023-06-22T15:11:53;14.02;;;4.97;;
23712;SDS011;12035;49.978;8.298;2023-06-22T15:16:50;10.32;;;4.22;;
23712;SDS011;12035;49.978;8.298;2023-06-22T15:21:49;10.15;;;4.35;;
23712;SDS011;12035;49.978;8.298;2023-06-22T15:26:46;15.10;;;4.80;;
23712;SDS011;12035;49.978;8.298;2023-06-22T15:31:43;9.55;;;4.72;;
23712;SDS011;12035;49.978;8.298;2023-06-22T15:36:40;12.35;;;4.63;;
23712;SDS011;12035;49.978;8.298;2023-06-22T15:41:40;7.70;;;4.72;;
23712;SDS011;12035;49.978;8.298;2023-06-22T15:46:37;8.02;;;4.70;;
23712;SDS011;12035;49.978;8.298;2023-06-22T15:51:34;10.65;;;3.90;;
23712;SDS011;12035;49.978;8.298;2023-06-22T15:56:31;10.98;;;3.67;;
23712;SDS011;12035;49.978;8.298;2023-06-22T16:01:30;11.75;;;3.10;;
23712;SDS011;12035;49.978;8.298;2023-06-22T16:06:27;11.45;;;3.85;;
23712;SDS011;12035;49.978;8.298;2023-06-22T16:11:24;10.40;;;3.47;;
23712;SDS011;12035;49.978;8.298;2023-06-22T16:16:21;7.40;;;3.08;;
23712;SDS011;12035;49.978;8.298;2023-06-22T16:21:20;9.25;;;3.25;;
23712;SDS011;12035;49.978;8.298;2023-06-22T16:26:17;7.15;;;2.83;;
23712;SDS011;12035;49.978;8.298;2023-06-22T16:31:14;8.88;;;3.15;;
23712;SDS011;12035;49.978;8.298;2023-06-22T16:36:11;13.05;;;3.72;;
23712;SDS011;12035;49.978;8.298;2023-06-22T16:41:09;9.13;;;3.60;;
23712;SDS011;12035;49.978;8.298;2023-06-22T16:46:07;9.95;;;3.20;;
23712;SDS011;12035;49.978;8.298;2023-06-22T16:51:05;9.65;;;2.90;;
23712;SDS011;12035;49.978;8.298;2023-06-22T16:56:03;6.78;;;3.72;;
23712;SDS011;12035;49.978;8.298;2023-06-22T17:01:02;9.85;;;3.90;;
23712;SDS011;12035;49.978;8.298;2023-06-22T17:06:03;13.48;;;3.70;;
23712;SDS011;12035;49.978;8.298;2023-06-22T17:11:01;6.05;;;3.25;;
23712;SDS011;12035;49.978;8.298;2023-06-22T17:15:59;7.38;;;3.15;;
23712;SDS011;12035;49.978;8.298;2023-06-22T17:21:02;12.68;;;3.80;;
23712;SDS011;12035;49.978;8.298;2023-06-22T17:25:59;9.63;;;3.60;;
23712;SDS011;12035;49.978;8.298;2023-06-22T17:31:09;6.50;;;3.30;;
23712;SDS011;12035;49.978;8.298;2023-06-22T17:36:10;16.38;;;3.95;;
23712;SDS011;12035;49.978;8.298;2023-06-22T17:41:08;16.38;;;4.57;;
23712;SDS011;12035;49.978;8.298;2023-06-22T17:46:05;12.82;;;3.60;;
23712;SDS011;12035;49.978;8.298;2023-06-22T17:51:04;11.88;;;3.33;;
23712;SDS011;12035;49.978;8.298;2023-06-22T17:56:01;7.35;;;3.30;;
23712;SDS011;12035;49.978;8.298;2023-06-22T18:00:58;10.55;;;3.35;;
23712;SDS011;12035;49.978;8.298;2023-06-22T18:05:55;9.27;;;3.20;;
23712;SDS011;12035;49.978;8.298;2023-06-22T18:10:55;6.15;;;3.13;;
23712;SDS011;12035;49.978;8.298;2023-06-22T18:15:55;6.18;;;3.00;;
23712;SDS011;12035;49.978;8.298;2023-06-22T18:20:53;10.10;;;3.58;;
23712;SDS011;12035;49.978;8.298;2023-06-22T18:25:52;8.82;;;3.35;;
23712;SDS011;12035;49.978;8.298;2023-06-22T18:30:51;12.45;;;3.40;;
23712;SDS011;12035;49.978;8.298;2023-06-22T18:35:48;6.68;;;3.35;;
23712;SDS011;12035;49.978;8.298;2023-06-22T18:40:48;9.73;;;3.53;;
23712;SDS011;12035;49.978;8.298;2023-06-22T18:45:47;9.70;;;3.60;;
23712;SDS011;12035;49.978;8.298;2023-06-22T18:50:45;6.10;;;2.83;;
23712;SDS011;12035;49.978;8.298;2023-06-22T18:55:44;7.55;;;2.90;;
23712;SDS011;12035;49.978;8.298;2023-06-22T19:00:45;6.35;;;3.53;;
23712;SDS011;12035;49.978;8.298;2023-06-22T19:05:49;8.40;;;2.05;;
23712;SDS011;12035;49.978;8.298;2023-06-22T19:10:46;3.22;;;1.67;;
23712;SDS011;12035;49.978;8.298;2023-06-22T19:15:44;4.78;;;1.42;;
23712;SDS011;12035;49.978;8.298;2023-06-22T19:20:47;2.72;;;1.35;;
23712;SDS011;12035;49.978;8.298;2023-06-22T19:25:45;3.17;;;1.20;;
23712;SDS011;12035;49.978;8.298;2023-06-22T19:30:43;2.83;;;1.40;;
23712;SDS011;12035;49.978;8.298;2023-06-22T19:35:41;4.75;;;1.17;;
23712;SDS011;12035;49.978;8.298;2023-06-22T19:40:41;5.30;;;0.95;;
23712;SDS011;12035;49.978;8.298;2023-06-22T19:45:38;3.03;;;0.70;;
23712;SDS011;12035;49.978;8.298;2023-06-22T19:50:36;2.03;;;0.80;;
23712;SDS011;12035;49.978;8.298;2023-06-22T19:55:37;0.98;;;0.70;;
23712;SDS011;12035;49.978;8.298;2023-06-22T20:00:38;1.05;;;0.50;;
23712;SDS011;12035;49.978;8.298;2023-06-22T20:05:39;3.25;;;1.65;;
23712;SDS011;12035;49.978;8.298;2023-06-22T20:10:44;3.60;;;2.22;;
23712;SDS011;12035;49.978;8.298;2023-06-22T20:15:42;0.90;;;0.60;;
23712;SDS011;12035;49.978;8.298;2023-06-22T20:20:41;0.68;;;0.50;;
23712;SDS011;12035;49.978;8.298;2023-06-22T20:25:41;0.95;;;0.50;;
23712;SDS011;12035;49.978;8.298;2023-06-22T20:35:57;0.43;;;0.40;;
23712;SDS011;12035;49.978;8.298;2023-06-22T20:40:57;2.05;;;0.50;;
23712;SDS011;12035;49.978;8.298;2023-06-22T20:45:54;0.70;;;0.40;;
23712;SDS011;12035;49.978;8.298;2023-06-22T20:50:54;0.52;;;0.40;;
23712;SDS011;12035;49.978;8.298;2023-06-22T20:55:53;1.52;;;0.40;;
23712;SDS011;12035;49.978;8.298;2023-06-22T21:00:51;0.30;;;0.30;;
23712;SDS011;12035;49.978;8.298;2023-06-22T21:05:49;1.23;;;0.80;;
23712;SDS011;12035;49.978;8.298;2023-06-22T21:10:46;1.05;;;0.55;;
23712;SDS011;12035;49.978;8.298;2023-06-22T21:15:44;0.30;;;0.30;;
23712;SDS011;12035;49.978;8.298;2023-06-22T21:20:42;0.50;;;0.30;;
23712;SDS011;12035;49.978;8.298;2023-06-22T21:25:39;0.30;;;0.20;;
23712;SDS011;12035;49.978;8.298;2023-06-22T21:30:36;0.30;;;0.22;;
23712;SDS011;12035;49.978;8.298;2023-06-22T21:35:33;0.13;;;0.10;;
23712;SDS011;12035;49.978;8.298;2023-06-22T21:40:32;0.50;;;0.20;;
23712;SDS011;12035;49.978;8.298;2023-06-22T21:45:29;0.57;;;0.20;;
23712;SDS011;12035;49.978;8.298;2023-06-22T21:50:25;0.55;;;0.30;;
23712;SDS011;12035;49.978;8.298;2023-06-22T21:55:22;1.55;;;0.10;;
23712;SDS011;12035;49.978;8.298;2023-06-22T22:00:21;0.20;;;0.17;;
23712;SDS011;12035;49.978;8.298;2023-06-22T22:05:18;0.20;;;0.20;;
23712;SDS011;12035;49.978;8.298;2023-06-22T22:10:15;0.98;;;0.30;;
23712;SDS011;12035;49.978;8.298;2023-06-22T22:15:13;0.90;;;0.30;;
23712;SDS011;12035;49.978;8.298;2023-06-22T22:20:11;2.33;;;0.30;;
23712;SDS011;12035;49.978;8.298;2023-06-22T22:25:08;0.88;;;0.30;;
23712;SDS011;12035;49.978;8.298;2023-06-22T22:30:06;0.30;;;0.30;;
23712;SDS011;12035;49.978;8.298;2023-06-22T22:35:05;0.50;;;0.35;;
23712;SDS011;12035;49.978;8.298;2023-06-22T22:40:04;1.33;;;0.80;;
23712;SDS011;12035;49.978;8.298;2023-06-22T22:45:05;1.80;;;1.30;;
23712;SDS011;12035;49.978;8.298;2023-06-22T22:50:04;2.47;;;1.60;;
23712;SDS011;12035;49.978;8.298;2023-06-22T22:55:05;2.97;;;2.10;;
23712;SDS011;12035;49.978;8.298;2023-06-22T23:00:04;4.15;;;2.30;;
23712;SDS011;12035;49.978;8.298;2023-06-22T23:05:07;5.70;;;2.45;;
23712;SDS011;12035;49.978;8.298;2023-06-22T23:10:07;3.50;;;2.55;;
23712;SDS011;12035;49.978;8.298;2023-06-22T23:15:06;4.40;;;3.13;;
23712;SDS011;12035;49.978;8.298;2023-06-22T23:20:04;4.10;;;3.05;;
23712;SDS011;12035;49.978;8.298;2023-06-22T23:25:05;4.18;;;3.25;;
23712;SDS011;12035;49.978;8.298;2023-06-22T23:30:05;4.95;;;3.50;;
23712;SDS011;12035;49.978;8.298;2023-06-22T23:35:05;8.48;;;4.00;;
23712;SDS011;12035;49.978;8.298;2023-06-22T23:40:07;6.05;;;3.60;;
23712;SDS011;12035;49.978;8.298;2023-06-22T23:45:11;5.57;;;4.00;;
23712;SDS011;12035;49.978;8.298;2023-06-22T23:50:12;5.80;;;3.67;;
23712;SDS011;12035;49.978;8.298;2023-06-22T23:55:11;5.10;;;3.97;;
